Anthony, West Virginia
Current Conditions -  °F | °C
As of 4:35 PM on Friday 31 Oct 2014 (Local Time) from KLWB Reporting Station
Drizzle Drizzle  
Wind Chill: 45°   Ceiling: 3600
Heat Index: 45°   Visibility: 7mi
Dew Point: 38°   Wind: 0mph
Humidity: 79%   Direction: NA
Pressure: 29.82"   Gusts: NA
Location:  38.0307°N, 80.4756°W
Report Text: KLWB 312035Z AUTO 00000KT 7SM DZ SCT026 BKN036 OVC041 07/04 A2982 RMK AO2 P0001 T00700036
Loading
Personal Weather Stations






























Interactive Weather Map
Tropical Storm Tracking
New forecast layout! Learn more

10-Day Weather Forecast

Advertisements
Track Severe Weather on mobile